createdAt,value
2019-05-16T00:02:14.134Z,1.10
2019-05-16T00:07:10.057Z,1.00
2019-05-16T00:12:08.577Z,0.97
2019-05-16T00:17:04.127Z,1.10
2019-05-16T00:22:00.166Z,0.90
2019-05-16T00:26:58.009Z,1.13
2019-05-16T00:31:54.028Z,1.00
2019-05-16T00:36:49.949Z,1.30
2019-05-16T00:41:47.878Z,1.00
2019-05-16T00:46:43.895Z,0.87
2019-05-16T00:51:39.926Z,1.40
2019-05-16T00:56:38.259Z,0.90
2019-05-16T01:01:33.996Z,0.77
2019-05-16T01:06:29.893Z,0.93
2019-05-16T01:11:27.772Z,0.80
2019-05-16T01:16:23.665Z,1.10
2019-05-16T01:21:19.597Z,0.70
2019-05-16T01:26:15.551Z,0.90
2019-05-16T01:31:11.476Z,0.90
2019-05-16T01:36:09.016Z,1.00
2019-05-16T01:41:05.232Z,0.93
2019-05-16T01:46:01.174Z,0.80
2019-05-16T01:50:58.362Z,0.83
2019-05-16T01:55:54.588Z,0.87
2019-05-16T02:01:03.033Z,1.00
2019-05-16T02:05:48.456Z,0.90
2019-05-16T02:10:44.384Z,1.03
2019-05-16T02:15:40.317Z,1.07
2019-05-16T02:20:39.030Z,1.00
2019-05-16T02:25:34.186Z,0.80
2019-05-16T02:30:31.520Z,1.07
2019-05-16T02:35:27.653Z,0.70
2019-05-16T02:40:23.911Z,1.10
2019-05-16T02:45:23.871Z,0.90
2019-05-16T02:50:18.082Z,0.80
2019-05-16T02:55:14.121Z,0.90
2019-05-16T03:00:12.125Z,1.03
2019-05-16T03:05:11.626Z,0.87
2019-05-16T03:10:07.024Z,0.60
2019-05-16T03:15:05.114Z,1.07
2019-05-16T03:20:01.617Z,1.27
2019-05-16T03:25:00.686Z,1.20
2019-05-16T03:29:55.731Z,1.17
2019-05-16T03:34:54.835Z,1.00
2019-05-16T03:39:51.489Z,1.20
2019-05-16T03:44:47.369Z,0.80
2019-05-16T03:49:43.298Z,1.10
2019-05-16T03:54:42.018Z,1.37
2019-05-16T03:59:40.701Z,1.10
2019-05-16T04:04:35.530Z,1.50
2019-05-16T04:09:31.752Z,1.20
2019-05-16T04:14:30.704Z,1.27
2019-05-16T04:19:25.667Z,1.40
2019-05-16T04:24:21.952Z,1.70
2019-05-16T04:29:20.669Z,1.57
2019-05-16T04:34:16.448Z,1.60
2019-05-16T04:39:12.370Z,1.70
2019-05-16T04:44:11.633Z,1.97
2019-05-16T04:49:06.865Z,1.40
2019-05-16T04:54:06.751Z,1.50
2019-05-16T04:59:15.952Z,1.37
2019-05-16T05:04:14.291Z,1.43
2019-05-16T05:09:05.556Z,1.73
2019-05-16T05:14:01.484Z,1.50
2019-05-16T05:19:00.148Z,1.60
2019-05-16T05:23:55.349Z,1.20
2019-05-16T05:28:55.496Z,1.40
2019-05-16T05:33:51.426Z,2.03
2019-05-16T05:38:49.115Z,1.70
2019-05-16T05:43:45.199Z,1.80
2019-05-16T05:48:41.286Z,1.67
2019-05-16T05:53:37.266Z,1.87
2019-05-16T05:58:37.489Z,1.80
2019-05-16T06:03:33.650Z,1.70
2019-05-16T06:08:30.580Z,1.87
2019-05-16T06:13:30.832Z,1.70
2019-05-16T06:18:26.456Z,1.73
2019-05-16T06:23:22.427Z,1.80
2019-05-16T06:28:20.819Z,2.07
2019-05-16T06:33:19.771Z,1.90
2019-05-16T06:38:15.090Z,1.40
2019-05-16T06:43:11.451Z,1.53
2019-05-16T06:48:09.889Z,1.60
2019-05-16T06:53:05.712Z,1.60
2019-05-16T06:58:02.294Z,1.00
2019-05-16T07:03:00.427Z,1.43
2019-05-16T07:07:59.722Z,1.77
2019-05-16T07:12:55.720Z,1.80
2019-05-16T07:17:52.182Z,1.83
2019-05-16T07:22:50.334Z,1.93
2019-05-16T07:27:47.479Z,1.63
2019-05-16T07:32:44.330Z,2.03
2019-05-16T07:37:40.444Z,1.20
2019-05-16T07:42:36.383Z,1.90
2019-05-16T07:47:32.294Z,1.43
2019-05-16T07:52:35.238Z,1.40
2019-05-16T07:57:26.154Z,2.00
2019-05-16T08:02:22.119Z,1.23
2019-05-16T08:07:20.140Z,2.00
2019-05-16T08:12:16.107Z,2.00
2019-05-16T08:17:12.046Z,1.40
2019-05-16T08:22:10.617Z,1.90
2019-05-16T08:27:05.893Z,1.53
2019-05-16T08:32:02.365Z,1.70
2019-05-16T08:37:01.116Z,1.00
2019-05-16T08:42:03.436Z,1.60
2019-05-16T08:46:57.917Z,1.80
2019-05-16T08:51:53.045Z,1.50
2019-05-16T09:01:53.401Z,1.33
2019-05-16T09:06:45.296Z,1.70
2019-05-16T09:10:14.344Z,1.60
2019-05-16T09:11:44.891Z,2.00
2019-05-16T09:16:39.267Z,1.40
2019-05-16T09:21:38.200Z,2.60
2019-05-16T09:26:33.106Z,1.40
2019-05-16T09:31:30.677Z,1.53
2019-05-16T09:36:28.017Z,1.47
2019-05-16T09:41:27.146Z,1.50
2019-05-16T09:46:22.453Z,1.80
2019-05-16T09:51:21.344Z,1.37
2019-05-16T09:56:16.772Z,2.07
2019-05-16T10:01:13.055Z,2.40
2019-05-16T10:06:08.991Z,2.17
2019-05-16T10:11:06.352Z,1.90
2019-05-16T10:16:02.472Z,1.97
2019-05-16T10:20:59.294Z,1.90
2019-05-16T10:25:56.784Z,1.90
2019-05-16T10:30:53.010Z,2.17
2019-05-16T10:35:49.156Z,1.80
2019-05-16T10:40:47.328Z,1.00
2019-05-16T10:45:42.998Z,1.97
2019-05-16T10:50:39.075Z,1.60
2019-05-16T10:55:36.801Z,1.97
2019-05-16T11:00:57.653Z,2.30
2019-05-16T11:05:36.066Z,2.20
2019-05-16T11:10:29.734Z,1.83
2019-05-16T11:15:27.856Z,1.30
2019-05-16T11:20:26.825Z,1.70
2019-05-16T11:25:28.576Z,1.97
2019-05-16T11:30:22.026Z,1.83
2019-05-16T11:35:18.298Z,2.10
2019-05-16T11:40:17.846Z,1.23
2019-05-16T11:45:13.914Z,2.10
2019-05-16T11:50:09.951Z,1.67
2019-05-16T11:55:07.634Z,2.23
2019-05-16T12:00:08.022Z,2.47
2019-05-16T12:05:04.759Z,1.93
2019-05-16T12:10:00.864Z,2.00
2019-05-16T12:14:58.347Z,1.90
2019-05-16T12:19:57.535Z,2.57
2019-05-16T12:24:53.190Z,2.70
2019-05-16T12:29:54.837Z,2.30
2019-05-16T12:34:47.014Z,3.20
2019-05-16T12:39:43.043Z,3.17
2019-05-16T12:44:39.340Z,3.33
2019-05-16T12:49:37.766Z,3.10
2019-05-16T12:54:36.875Z,3.17
2019-05-16T12:59:42.183Z,2.83
2019-05-16T13:04:42.316Z,3.53
2019-05-16T13:09:40.277Z,3.03
2019-05-16T13:14:40.388Z,3.07
2019-05-16T13:19:44.054Z,2.90
2019-05-16T13:24:39.823Z,3.20
2019-05-16T13:29:41.302Z,3.87
2019-05-16T13:34:38.694Z,3.30
2019-05-16T13:39:36.029Z,3.33
2019-05-16T13:44:33.142Z,3.50
2019-05-16T13:49:29.074Z,3.53
2019-05-16T13:54:28.153Z,4.00
2019-05-16T13:59:37.368Z,4.00
2019-05-16T14:04:34.393Z,4.23
2019-05-16T14:09:32.739Z,3.63
2019-05-16T14:14:38.179Z,3.93
2019-05-16T14:19:33.128Z,3.60
2019-05-16T14:24:30.296Z,3.43
2019-05-16T14:29:28.685Z,2.87
2019-05-16T14:34:27.865Z,3.50
2019-05-16T14:39:28.645Z,3.40
2019-05-16T14:44:28.683Z,3.43
2019-05-16T14:49:29.026Z,3.90
2019-05-16T14:54:31.403Z,4.23
2019-05-16T14:59:36.505Z,4.40
2019-05-16T15:04:33.421Z,4.00
2019-05-16T15:09:32.564Z,4.00
2019-05-16T15:14:32.438Z,5.27
2019-05-16T15:19:29.527Z,4.23
2019-05-16T15:24:26.991Z,4.53
2019-05-16T15:29:27.232Z,4.83
2019-05-16T15:34:24.084Z,5.40
2019-05-16T15:39:20.948Z,5.07
2019-05-16T15:44:17.844Z,5.67
2019-05-16T15:49:14.178Z,6.30
2019-05-16T15:54:14.443Z,5.77
2019-05-16T15:59:17.985Z,4.83
2019-05-16T16:09:30.900Z,6.17
2019-05-16T16:14:27.484Z,5.63
2019-05-16T16:19:23.568Z,7.57
2019-05-16T16:24:19.630Z,6.27
2019-05-16T16:29:16.891Z,5.93
2019-05-16T16:34:13.067Z,7.00
2019-05-16T16:39:09.122Z,7.40
2019-05-16T16:44:07.470Z,6.70
2019-05-16T16:49:03.131Z,5.70
2019-05-16T16:53:59.169Z,5.70
2019-05-16T16:58:55.121Z,5.67
2019-05-16T17:03:54.542Z,5.23
2019-05-16T17:08:48.935Z,5.50
2019-05-16T17:13:47.052Z,4.53
2019-05-16T17:18:42.723Z,6.47
2019-05-16T17:23:38.652Z,5.37
2019-05-16T17:28:37.089Z,5.63
2019-05-16T17:33:32.551Z,6.10
2019-05-16T17:38:28.485Z,7.10
2019-05-16T17:43:26.840Z,6.30
2019-05-16T17:48:22.358Z,7.90
2019-05-16T17:53:18.288Z,8.43
2019-05-16T17:58:16.338Z,8.07
2019-05-16T18:03:12.190Z,9.20
2019-05-16T18:08:08.090Z,5.77
2019-05-16T18:13:04.417Z,5.60
2019-05-16T18:18:00.346Z,5.93
2019-05-16T18:22:56.922Z,5.00
2019-05-16T18:27:53.009Z,6.10
2019-05-16T18:32:49.037Z,5.30
2019-05-16T18:37:46.491Z,5.97
2019-05-16T18:42:42.505Z,5.43
2019-05-16T18:47:38.445Z,4.97
2019-05-16T18:52:37.241Z,5.70
2019-05-16T18:57:32.723Z,6.50
2019-05-16T19:02:29.537Z,5.80
2019-05-16T19:07:27.333Z,6.20
2019-05-16T19:12:23.327Z,6.87
2019-05-16T19:17:24.231Z,6.33
2019-05-16T19:22:17.196Z,7.67
2019-05-16T19:27:13.142Z,7.43
2019-05-16T19:32:09.079Z,8.27
2019-05-16T19:37:16.184Z,8.77
2019-05-16T19:42:36.786Z,7.70
2019-05-16T19:47:40.855Z,8.77
2019-05-16T19:57:57.186Z,8.27
2019-05-16T20:02:56.874Z,7.80
2019-05-16T20:07:55.349Z,8.30
2019-05-16T20:12:56.927Z,9.07
2019-05-16T20:17:58.682Z,7.60
2019-05-16T20:22:57.391Z,7.43
2019-05-16T20:27:54.600Z,9.23
2019-05-16T20:32:50.748Z,8.47
2019-05-16T20:37:47.389Z,9.00
2019-05-16T20:42:43.660Z,8.77
2019-05-16T20:47:40.008Z,9.80
2019-05-16T20:52:37.761Z,9.30
2019-05-16T20:57:34.375Z,9.27
2019-05-16T21:02:30.472Z,9.90
2019-05-16T21:07:26.693Z,10.90
2019-05-16T21:12:22.900Z,9.90
2019-05-16T21:17:18.932Z,9.60
2019-05-16T21:22:16.223Z,10.97
2019-05-16T21:27:13.034Z,11.60
2019-05-16T21:32:09.121Z,11.93
2019-05-16T21:37:14.560Z,12.27
2019-05-16T21:42:03.698Z,12.33
2019-05-16T21:47:00.065Z,13.00
2019-05-16T21:51:57.122Z,11.53
2019-05-16T21:56:53.627Z,12.80
2019-05-16T22:01:49.705Z,12.60
2019-05-16T22:06:47.531Z,12.87
2019-05-16T22:11:43.843Z,14.53
2019-05-16T22:16:40.271Z,12.30
2019-05-16T22:21:36.401Z,13.40
2019-05-16T22:26:32.609Z,11.73
2019-05-16T22:31:28.965Z,13.43
2019-05-16T22:36:26.595Z,13.53
2019-05-16T22:41:23.083Z,13.90
2019-05-16T22:46:19.284Z,13.10
2019-05-16T22:51:16.497Z,13.17
2019-05-16T22:56:12.895Z,13.00
2019-05-16T23:01:09.219Z,13.07
2019-05-16T23:06:07.713Z,12.20
2019-05-16T23:11:03.629Z,12.77
2019-05-16T23:15:59.818Z,12.80
2019-05-16T23:20:57.091Z,13.70
2019-05-16T23:25:53.451Z,13.77
2019-05-16T23:30:49.568Z,14.10
2019-05-16T23:35:46.838Z,13.83
2019-05-16T23:40:43.262Z,14.90
2019-05-16T23:45:39.477Z,13.80
2019-05-16T23:50:37.270Z,15.10
2019-05-16T23:55:33.343Z,15.33
